createdAt,value
2022-09-29T00:00:35.498Z,11.87
2022-09-29T00:03:02.156Z,11.87
2022-09-29T00:05:28.567Z,11.88
2022-09-29T00:07:54.786Z,11.89
2022-09-29T00:10:21.325Z,11.90
2022-09-29T00:12:47.538Z,11.90
2022-09-29T00:15:13.929Z,11.94
2022-09-29T00:17:46.592Z,11.94
2022-09-29T00:20:24.401Z,11.97
2022-09-29T00:22:51.681Z,11.85
2022-09-29T00:25:18.798Z,11.87
2022-09-29T00:27:45.425Z,12.01
2022-09-29T00:30:12.662Z,12.01
2022-09-29T00:32:38.891Z,12.03
2022-09-29T00:35:08.365Z,12.03
2022-09-29T00:37:35.283Z,12.03
2022-09-29T00:40:01.835Z,12.03
2022-09-29T00:42:28.751Z,12.04
2022-09-29T00:45:17.880Z,11.99
2022-09-29T00:47:48.162Z,12.03
2022-09-29T00:50:20.579Z,12.03
2022-09-29T00:52:53.211Z,12.02
2022-09-29T00:55:31.876Z,12.01
2022-09-29T00:58:06.102Z,12.01
2022-09-29T01:00:33.329Z,12.00
2022-09-29T01:03:04.925Z,11.98
2022-09-29T01:05:37.808Z,11.95
2022-09-29T01:08:11.474Z,11.94
2022-09-29T01:10:39.602Z,11.93
2022-09-29T01:13:06.260Z,12.00
2022-09-29T01:15:32.899Z,11.96
2022-09-29T01:17:59.252Z,11.87
2022-09-29T01:20:26.374Z,11.97
2022-09-29T01:23:30.037Z,11.94
2022-09-29T01:26:18.502Z,11.93
2022-09-29T01:28:56.755Z,11.93
2022-09-29T01:32:00.476Z,11.92
2022-09-29T01:34:26.606Z,11.86
2022-09-29T01:36:56.072Z,11.80
2022-09-29T01:39:31.217Z,11.75
2022-09-29T01:42:03.575Z,11.72
2022-09-29T01:44:44.993Z,11.70
2022-09-29T01:47:13.831Z,11.67
2022-09-29T01:49:44.672Z,11.57
2022-09-29T01:52:18.265Z,11.52
2022-09-29T01:54:48.868Z,11.57
2022-09-29T01:57:23.276Z,11.60
2022-09-29T01:59:55.534Z,11.62
2022-09-29T02:02:28.252Z,11.55
2022-09-29T02:04:58.341Z,11.51
2022-09-29T02:07:33.311Z,11.53
2022-09-29T02:10:04.109Z,11.51
2022-09-29T02:12:32.907Z,11.53
2022-09-29T02:15:02.613Z,11.50
2022-09-29T02:17:36.691Z,11.47
2022-09-29T02:20:04.018Z,11.45
2022-09-29T02:22:30.247Z,11.39
2022-09-29T02:24:59.164Z,11.31
2022-09-29T02:27:29.546Z,11.29
2022-09-29T02:29:58.851Z,11.24
2022-09-29T02:32:25.760Z,11.18
2022-09-29T02:34:52.666Z,11.09
2022-09-29T02:37:21.917Z,11.02
2022-09-29T02:40:01.261Z,10.97
2022-09-29T02:42:38.601Z,10.93
2022-09-29T02:45:29.936Z,10.90
2022-09-29T02:48:19.611Z,10.94
2022-09-29T02:50:48.843Z,10.96
2022-09-29T02:53:40.275Z,11.00
2022-09-29T02:56:31.836Z,11.01
2022-09-29T02:59:04.844Z,11.00
2022-09-29T03:01:32.515Z,11.01
2022-09-29T03:04:03.953Z,11.01
2022-09-29T03:06:31.058Z,10.99
2022-09-29T03:08:57.325Z,10.95
2022-09-29T03:11:23.880Z,10.88
2022-09-29T03:13:50.117Z,10.82
2022-09-29T03:16:16.443Z,10.80
2022-09-29T03:18:44.106Z,10.78
2022-09-29T03:21:10.336Z,10.75
2022-09-29T03:23:36.562Z,10.70
2022-09-29T03:26:03.099Z,10.55
2022-09-29T03:28:29.370Z,10.68
2022-09-29T03:30:55.726Z,10.54
2022-09-29T03:33:22.258Z,10.65
2022-09-29T03:35:48.524Z,10.59
2022-09-29T03:38:14.812Z,10.56
2022-09-29T03:40:41.360Z,10.51
2022-09-29T03:43:07.610Z,10.48
2022-09-29T03:45:33.877Z,10.46
2022-09-29T03:48:00.550Z,10.45
2022-09-29T03:50:26.795Z,10.48
2022-09-29T03:52:53.043Z,10.46
2022-09-29T03:55:19.611Z,10.41
2022-09-29T03:57:46.405Z,10.28
2022-09-29T04:00:13.202Z,10.19
2022-09-29T04:02:39.710Z,9.94
2022-09-29T04:05:06.328Z,10.02
2022-09-29T04:07:32.639Z,10.06
2022-09-29T04:09:59.200Z,10.12
2022-09-29T04:12:25.483Z,10.19
2022-09-29T04:14:51.754Z,10.24
2022-09-29T04:17:18.274Z,10.32
2022-09-29T04:19:44.499Z,10.37
2022-09-29T04:22:11.652Z,10.43
2022-09-29T04:24:38.621Z,10.49
2022-09-29T04:27:04.869Z,10.52
2022-09-29T04:29:31.163Z,10.52
2022-09-29T04:31:57.814Z,10.57
2022-09-29T04:34:24.144Z,10.57
2022-09-29T04:36:50.438Z,10.54
2022-09-29T04:39:17.037Z,10.58
2022-09-29T04:41:43.326Z,10.65
2022-09-29T04:44:09.651Z,10.71
2022-09-29T04:46:36.204Z,10.71
2022-09-29T04:49:02.490Z,10.82
2022-09-29T04:51:28.739Z,10.87
2022-09-29T04:53:55.377Z,10.92
2022-09-29T04:56:21.667Z,10.96
2022-09-29T04:58:47.910Z,11.01
2022-09-29T05:01:15.841Z,11.06
2022-09-29T05:03:42.475Z,11.10
2022-09-29T05:06:09.966Z,11.12
2022-09-29T05:08:36.754Z,11.18
2022-09-29T05:11:05.419Z,11.30
2022-09-29T05:13:31.772Z,11.36
2022-09-29T05:15:58.457Z,11.44
2022-09-29T05:18:25.326Z,11.51
2022-09-29T05:21:10.659Z,11.52
2022-09-29T05:23:38.828Z,11.62
2022-09-29T05:26:08.856Z,11.49
2022-09-29T05:28:36.048Z,11.64
2022-09-29T05:31:07.586Z,11.73
2022-09-29T05:33:34.825Z,11.77
2022-09-29T05:36:01.323Z,11.83
2022-09-29T05:38:28.172Z,11.81
2022-09-29T05:40:54.440Z,11.87
2022-09-29T05:43:20.746Z,11.81
2022-09-29T05:45:47.308Z,11.91
2022-09-29T05:48:13.576Z,11.90
2022-09-29T05:50:43.275Z,11.89
2022-09-29T05:53:10.784Z,11.88
2022-09-29T05:55:38.260Z,11.89
2022-09-29T05:58:06.083Z,11.82
2022-09-29T06:00:33.160Z,11.87
2022-09-29T06:03:00.261Z,11.80
2022-09-29T06:05:27.281Z,11.82
2022-09-29T06:07:54.674Z,11.90
2022-09-29T06:10:21.483Z,11.92
2022-09-29T06:12:48.020Z,11.93
2022-09-29T06:15:14.251Z,11.78
2022-09-29T06:17:40.777Z,11.86
2022-09-29T06:20:07.326Z,11.88
2022-09-29T06:22:33.800Z,11.85
2022-09-29T06:25:00.318Z,11.94
2022-09-29T06:27:26.545Z,12.05
2022-09-29T06:29:52.936Z,12.06
2022-09-29T06:32:19.554Z,12.15
2022-09-29T06:35:12.147Z,12.21
2022-09-29T06:37:40.326Z,12.25
2022-09-29T06:40:11.048Z,12.35
2022-09-29T06:42:38.893Z,12.37
2022-09-29T06:45:07.415Z,12.54
2022-09-29T06:47:33.637Z,12.51
2022-09-29T06:50:12.354Z,12.55
2022-09-29T06:52:55.405Z,12.52
2022-09-29T06:55:25.001Z,12.55
2022-09-29T06:57:51.703Z,12.43
2022-09-29T07:00:18.154Z,12.38
2022-09-29T07:02:46.563Z,12.51
2022-09-29T07:05:13.202Z,12.55
2022-09-29T07:07:39.444Z,12.47
2022-09-29T07:10:06.036Z,12.50
2022-09-29T07:12:32.632Z,12.56
2022-09-29T07:14:58.951Z,12.43
2022-09-29T07:17:25.209Z,12.56
2022-09-29T07:19:52.445Z,12.47
2022-09-29T07:22:18.692Z,12.55
2022-09-29T07:24:45.233Z,12.43
2022-09-29T07:27:11.779Z,12.43
2022-09-29T07:29:38.056Z,12.28
2022-09-29T07:32:05.841Z,12.10
2022-09-29T07:34:32.814Z,12.13
2022-09-29T07:36:59.162Z,12.03
2022-09-29T07:39:25.646Z,11.88
2022-09-29T07:41:52.233Z,11.88
2022-09-29T07:44:18.591Z,11.88
2022-09-29T07:46:45.219Z,11.83
2022-09-29T07:49:11.807Z,11.90
2022-09-29T07:51:39.027Z,11.88
2022-09-29T07:54:07.731Z,11.95
2022-09-29T07:56:35.758Z,11.97
2022-09-29T07:59:03.384Z,12.28
2022-09-29T08:01:30.261Z,12.80
2022-09-29T08:03:56.853Z,13.13
2022-09-29T08:06:24.958Z,13.25
2022-09-29T08:09:02.920Z,13.17
2022-09-29T08:11:32.656Z,13.05
2022-09-29T08:14:01.081Z,12.96
2022-09-29T08:16:27.655Z,12.95
2022-09-29T08:18:54.357Z,13.00
2022-09-29T08:21:20.602Z,13.07
2022-09-29T08:23:46.862Z,13.04
2022-09-29T08:26:16.095Z,13.12
2022-09-29T08:28:43.314Z,13.37
2022-09-29T08:31:14.204Z,13.70
2022-09-29T08:33:40.866Z,13.84
2022-09-29T08:36:14.593Z,13.84
2022-09-29T08:38:45.793Z,14.17
2022-09-29T08:41:34.079Z,16.46
2022-09-29T08:44:26.163Z,16.67
2022-09-29T08:47:41.812Z,16.94
2022-09-29T08:50:32.135Z,16.83
2022-09-29T08:53:02.648Z,17.46
2022-09-29T08:55:50.988Z,18.23
2022-09-29T08:58:17.528Z,18.45
2022-09-29T09:00:59.057Z,17.86
2022-09-29T09:04:16.328Z,17.71
2022-09-29T09:06:55.122Z,17.82
2022-09-29T09:09:32.368Z,17.16
2022-09-29T09:12:26.827Z,17.03
2022-09-29T09:15:14.185Z,16.80
2022-09-29T09:18:16.326Z,16.65
2022-09-29T09:21:18.710Z,16.50
2022-09-29T09:23:53.334Z,16.27
2022-09-29T09:26:32.228Z,16.13
2022-09-29T09:29:12.359Z,16.13
2022-09-29T09:32:00.207Z,16.21
2022-09-29T09:34:43.495Z,16.36
2022-09-29T09:37:20.813Z,16.50
2022-09-29T09:40:24.615Z,16.91
2022-09-29T09:43:13.711Z,17.29
2022-09-29T09:45:50.228Z,18.29
2022-09-29T09:48:32.009Z,18.00
2022-09-29T09:51:20.815Z,17.79
2022-09-29T09:53:48.477Z,17.33
2022-09-29T09:56:52.795Z,17.10
2022-09-29T09:59:27.997Z,17.04
2022-09-29T10:01:54.631Z,16.92
2022-09-29T10:04:21.788Z,16.83
2022-09-29T10:06:48.060Z,16.76
2022-09-29T10:09:15.465Z,16.71
2022-09-29T10:11:43.968Z,16.76
2022-09-29T10:14:14.721Z,16.96
2022-09-29T10:16:49.040Z,17.43
2022-09-29T10:19:21.872Z,18.46
2022-09-29T10:21:48.117Z,19.27
2022-09-29T10:24:23.277Z,20.53
2022-09-29T10:26:52.342Z,20.86
2022-09-29T10:29:33.696Z,20.92
2022-09-29T10:32:09.577Z,20.88
2022-09-29T10:34:38.496Z,20.22
2022-09-29T10:37:08.006Z,20.44
2022-09-29T10:39:42.906Z,20.94
2022-09-29T10:42:25.931Z,22.34
2022-09-29T10:45:14.065Z,22.36
2022-09-29T10:47:42.739Z,21.70
2022-09-29T10:50:21.215Z,20.97
2022-09-29T10:52:59.136Z,20.13
2022-09-29T10:55:26.827Z,19.47
2022-09-29T10:57:56.108Z,19.03
2022-09-29T11:00:31.329Z,18.66
2022-09-29T11:03:19.851Z,18.46
2022-09-29T11:05:59.002Z,18.35
2022-09-29T11:08:27.777Z,18.13
2022-09-29T11:11:04.874Z,17.90
2022-09-29T11:13:39.455Z,17.81
2022-09-29T11:16:15.243Z,17.49
2022-09-29T11:18:43.818Z,17.32
2022-09-29T11:21:25.613Z,17.23
2022-09-29T11:24:17.256Z,17.08
2022-09-29T11:26:47.773Z,16.80
2022-09-29T11:29:38.846Z,16.61
2022-09-29T11:32:50.250Z,16.39
2022-09-29T11:35:19.976Z,16.25
2022-09-29T11:38:13.840Z,16.05
2022-09-29T11:41:05.308Z,15.98
2022-09-29T11:43:50.715Z,15.92
2022-09-29T11:46:29.085Z,15.73
2022-09-29T11:49:24.277Z,15.77
2022-09-29T11:52:03.248Z,15.52
2022-09-29T11:55:00.787Z,15.63
2022-09-29T11:57:42.731Z,15.97
2022-09-29T12:01:26.775Z,17.26
2022-09-29T12:04:11.415Z,17.26
2022-09-29T12:06:43.633Z,16.89
2022-09-29T12:09:33.324Z,17.44
2022-09-29T12:12:22.669Z,17.79
2022-09-29T12:15:15.522Z,17.81
2022-09-29T12:17:44.675Z,18.18
2022-09-29T12:20:19.843Z,18.42
2022-09-29T12:22:47.744Z,18.52
2022-09-29T12:25:17.393Z,18.49
2022-09-29T12:27:45.626Z,18.52
2022-09-29T12:30:39.106Z,18.60
2022-09-29T12:33:29.787Z,18.46
2022-09-29T12:36:48.910Z,18.40
2022-09-29T12:39:21.344Z,18.34
2022-09-29T12:42:21.806Z,18.16
2022-09-29T12:44:57.498Z,18.05
2022-09-29T12:47:44.932Z,18.13
2022-09-29T12:50:49.914Z,18.09
2022-09-29T12:53:22.276Z,18.17
2022-09-29T12:56:05.865Z,17.99
2022-09-29T12:58:41.319Z,17.80
2022-09-29T13:01:30.859Z,17.87
2022-09-29T13:04:15.351Z,17.75
2022-09-29T13:06:57.510Z,17.68
2022-09-29T13:09:48.700Z,17.68
2022-09-29T13:12:36.128Z,17.73
2022-09-29T13:15:47.655Z,18.26
2022-09-29T13:18:53.963Z,19.00
2022-09-29T13:21:55.133Z,19.33
2022-09-29T13:24:28.265Z,19.18
2022-09-29T13:27:00.409Z,18.92
2022-09-29T13:29:27.976Z,18.60
2022-09-29T13:31:56.050Z,18.40
2022-09-29T13:34:32.967Z,18.57
2022-09-29T13:37:20.331Z,18.32
2022-09-29T13:40:04.566Z,18.39
2022-09-29T13:42:47.313Z,18.45
2022-09-29T13:45:36.529Z,18.53
2022-09-29T13:48:31.870Z,18.24
2022-09-29T13:51:05.160Z,18.14
2022-09-29T13:53:36.148Z,18.07
2022-09-29T13:56:02.325Z,18.11
2022-09-29T13:58:29.394Z,18.15
2022-09-29T14:00:58.902Z,17.97
2022-09-29T14:03:36.801Z,17.83
2022-09-29T14:06:39.754Z,17.77
2022-09-29T14:09:08.470Z,17.76
2022-09-29T14:11:35.988Z,17.75
2022-09-29T14:14:17.447Z,17.95
2022-09-29T14:17:09.328Z,18.22
2022-09-29T14:19:42.095Z,18.36
2022-09-29T14:22:26.469Z,18.13
2022-09-29T14:24:55.611Z,17.95
2022-09-29T14:27:35.275Z,17.76
2022-09-29T14:30:16.480Z,17.80
2022-09-29T14:32:56.298Z,17.79
2022-09-29T14:35:38.859Z,17.83
2022-09-29T14:38:54.066Z,17.79
2022-09-29T14:41:34.303Z,17.81
2022-09-29T14:44:10.087Z,17.60
2022-09-29T14:46:58.361Z,17.54
2022-09-29T14:50:17.324Z,17.42
2022-09-29T14:52:53.027Z,17.15
2022-09-29T14:55:49.605Z,17.04
2022-09-29T14:58:39.208Z,16.98
2022-09-29T15:01:17.858Z,16.80
2022-09-29T15:03:48.125Z,16.74
2022-09-29T15:06:26.257Z,16.89
2022-09-29T15:08:57.063Z,16.92
2022-09-29T15:11:31.813Z,16.60
2022-09-29T15:13:59.645Z,16.51
2022-09-29T15:16:44.385Z,16.31
2022-09-29T15:19:14.039Z,16.22
2022-09-29T15:21:52.293Z,16.06
2022-09-29T15:24:38.355Z,16.15
2022-09-29T15:27:06.256Z,15.99
2022-09-29T15:29:33.068Z,15.88
2022-09-29T15:31:59.478Z,15.77
2022-09-29T15:34:25.832Z,15.70
2022-09-29T15:36:54.558Z,15.59
2022-09-29T15:39:38.727Z,15.47
2022-09-29T15:42:19.454Z,15.35
2022-09-29T15:44:47.733Z,15.25
2022-09-29T15:47:23.101Z,15.14
2022-09-29T15:49:51.707Z,15.04
2022-09-29T15:52:22.361Z,14.85
2022-09-29T15:54:49.214Z,14.83
2022-09-29T15:57:49.939Z,14.82
2022-09-29T16:00:22.186Z,14.77
2022-09-29T16:03:02.292Z,14.68
2022-09-29T16:05:31.726Z,14.72
2022-09-29T16:08:15.920Z,14.64
2022-09-29T16:11:03.018Z,14.58
2022-09-29T16:13:34.839Z,14.67
2022-09-29T16:16:04.498Z,14.62
2022-09-29T16:18:42.005Z,14.55
2022-09-29T16:21:11.247Z,14.45
2022-09-29T16:24:02.490Z,14.38
2022-09-29T16:26:31.610Z,14.28
2022-09-29T16:29:00.136Z,14.21
2022-09-29T16:31:31.005Z,14.09
2022-09-29T16:34:02.560Z,14.17
2022-09-29T16:36:34.734Z,13.99
2022-09-29T16:39:01.834Z,14.10
2022-09-29T16:41:37.904Z,14.10
2022-09-29T16:44:06.823Z,14.12
2022-09-29T16:46:34.198Z,14.16
2022-09-29T16:49:00.537Z,14.19
2022-09-29T16:51:38.617Z,14.23
2022-09-29T16:54:05.565Z,14.25
2022-09-29T16:56:36.702Z,14.30
2022-09-29T16:59:12.837Z,14.42
2022-09-29T17:01:41.335Z,14.46
2022-09-29T17:04:08.409Z,14.51
2022-09-29T17:06:34.756Z,14.52
2022-09-29T17:09:01.405Z,14.50
2022-09-29T17:11:28.763Z,14.56
2022-09-29T17:13:57.260Z,14.59
2022-09-29T17:16:25.222Z,14.56
2022-09-29T17:18:53.079Z,14.58
2022-09-29T17:21:20.108Z,14.58
2022-09-29T17:23:46.754Z,14.59
2022-09-29T17:26:54.413Z,14.61
2022-09-29T17:29:20.927Z,14.63
2022-09-29T17:31:47.156Z,14.63
2022-09-29T17:34:13.830Z,14.61
2022-09-29T17:36:40.548Z,14.58
2022-09-29T17:39:06.847Z,14.54
2022-09-29T17:41:33.998Z,14.54
2022-09-29T17:44:04.316Z,14.60
2022-09-29T17:46:30.592Z,14.55
2022-09-29T17:48:56.897Z,14.39
2022-09-29T17:51:23.419Z,14.37
2022-09-29T17:53:49.682Z,14.25
2022-09-29T17:56:25.900Z,14.19
2022-09-29T17:58:53.879Z,14.18
2022-09-29T18:01:22.553Z,14.20
2022-09-29T18:03:51.020Z,14.08
2022-09-29T18:06:22.371Z,14.22
2022-09-29T18:08:53.839Z,14.21
2022-09-29T18:11:22.675Z,14.10
2022-09-29T18:13:49.326Z,14.17
2022-09-29T18:16:19.048Z,14.12
2022-09-29T18:18:45.448Z,13.96
2022-09-29T18:21:12.765Z,14.01
2022-09-29T18:23:39.031Z,13.94
2022-09-29T18:26:06.560Z,13.93
2022-09-29T18:28:33.438Z,13.90
2022-09-29T18:31:28.759Z,13.93
2022-09-29T18:33:55.390Z,13.90
2022-09-29T18:36:21.697Z,13.95
2022-09-29T18:38:48.344Z,13.96
2022-09-29T18:41:19.668Z,14.06
2022-09-29T18:43:47.906Z,14.10
2022-09-29T18:46:14.618Z,14.13
2022-09-29T18:48:41.834Z,14.14
2022-09-29T18:51:08.424Z,14.00
2022-09-29T18:53:35.548Z,14.11
2022-09-29T18:56:03.451Z,14.09
2022-09-29T18:58:30.264Z,14.09
2022-09-29T19:00:57.342Z,14.10
2022-09-29T19:03:26.263Z,14.12
2022-09-29T19:05:54.106Z,14.06
2022-09-29T19:08:20.992Z,14.12
2022-09-29T19:10:55.882Z,14.02
2022-09-29T19:13:22.552Z,14.14
2022-09-29T19:15:49.473Z,14.14
2022-09-29T19:18:22.394Z,14.12
2022-09-29T19:20:54.447Z,14.10
2022-09-29T19:23:21.130Z,13.90
2022-09-29T19:25:48.897Z,14.00
2022-09-29T19:28:16.924Z,13.92
2022-09-29T19:30:45.856Z,13.65
2022-09-29T19:33:16.858Z,13.72
2022-09-29T19:35:46.841Z,13.61
2022-09-29T19:38:13.056Z,13.52
2022-09-29T19:40:39.303Z,13.44
2022-09-29T19:43:05.928Z,13.38
2022-09-29T19:45:37.553Z,13.31
2022-09-29T19:48:08.313Z,13.35
2022-09-29T19:50:53.364Z,13.45
2022-09-29T19:53:19.743Z,13.26
2022-09-29T19:55:47.591Z,13.41
2022-09-29T19:58:13.953Z,13.34
2022-09-29T20:00:40.890Z,13.34
2022-09-29T20:03:08.780Z,13.19
2022-09-29T20:05:35.174Z,13.13
2022-09-29T20:08:02.522Z,13.05
2022-09-29T20:10:29.219Z,12.93
2022-09-29T20:12:56.224Z,12.86
2022-09-29T20:15:23.113Z,12.91
2022-09-29T20:17:49.943Z,12.87
2022-09-29T20:20:17.014Z,12.82
2022-09-29T20:22:43.363Z,12.75
2022-09-29T20:25:10.106Z,12.70
2022-09-29T20:27:36.492Z,12.66
2022-09-29T20:30:05.037Z,12.55
2022-09-29T20:32:31.950Z,12.74
2022-09-29T20:34:58.447Z,12.74
2022-09-29T20:37:25.449Z,12.74
2022-09-29T20:39:52.164Z,12.73
2022-09-29T20:42:18.409Z,12.74
2022-09-29T20:44:44.678Z,12.71
2022-09-29T20:47:11.245Z,12.66
2022-09-29T20:49:39.122Z,12.66
2022-09-29T20:52:05.940Z,12.61
2022-09-29T20:54:33.040Z,12.70
2022-09-29T20:57:00.426Z,12.76
2022-09-29T20:59:26.734Z,12.81
2022-09-29T21:01:53.656Z,12.75
2022-09-29T21:04:21.126Z,12.91
2022-09-29T21:06:49.207Z,12.94
2022-09-29T21:09:18.549Z,13.01
2022-09-29T21:11:47.053Z,13.04
2022-09-29T21:14:18.497Z,13.13
2022-09-29T21:16:47.079Z,13.20
2022-09-29T21:19:14.433Z,13.29
2022-09-29T21:21:41.424Z,13.31
2022-09-29T21:24:09.014Z,13.29
2022-09-29T21:26:35.546Z,13.37
2022-09-29T21:29:02.139Z,13.39
2022-09-29T21:31:32.990Z,13.34
2022-09-29T21:34:02.416Z,13.35
2022-09-29T21:36:30.936Z,13.32
2022-09-29T21:39:02.823Z,13.34
2022-09-29T21:41:33.891Z,13.35
2022-09-29T21:44:02.446Z,13.36
2022-09-29T21:46:30.749Z,13.32
2022-09-29T21:48:59.976Z,13.39
2022-09-29T21:51:29.378Z,13.35
2022-09-29T21:53:57.598Z,13.30
2022-09-29T21:56:27.206Z,13.22
2022-09-29T21:58:54.921Z,13.19
2022-09-29T22:01:21.472Z,13.18
2022-09-29T22:03:49.020Z,13.15
2022-09-29T22:06:27.294Z,13.17
2022-09-29T22:08:54.232Z,13.16
2022-09-29T22:11:24.009Z,13.18
2022-09-29T22:13:51.337Z,13.16
2022-09-29T22:16:21.797Z,13.15
2022-09-29T22:19:05.935Z,13.16
2022-09-29T22:21:35.388Z,13.09
2022-09-29T22:24:05.473Z,13.14
2022-09-29T22:26:32.079Z,13.13
2022-09-29T22:29:01.681Z,13.14
2022-09-29T22:31:28.247Z,13.13
2022-09-29T22:33:57.128Z,13.15
2022-09-29T22:36:25.370Z,13.15
2022-09-29T22:38:51.592Z,13.16
2022-09-29T22:41:19.228Z,13.09
2022-09-29T22:43:45.772Z,13.17
2022-09-29T22:46:12.277Z,13.16
2022-09-29T22:48:39.116Z,13.15
2022-09-29T22:51:06.280Z,13.04
2022-09-29T22:53:32.941Z,13.06
2022-09-29T22:56:00.968Z,13.04
2022-09-29T22:58:27.730Z,13.17
2022-09-29T23:01:08.253Z,13.16
2022-09-29T23:03:35.693Z,13.17
2022-09-29T23:06:03.103Z,13.16
2022-09-29T23:08:30.565Z,13.14
2022-09-29T23:10:57.133Z,13.19
2022-09-29T23:13:23.933Z,13.19
2022-09-29T23:15:50.414Z,13.06
2022-09-29T23:18:20.307Z,13.19
2022-09-29T23:20:46.714Z,13.16
2022-09-29T23:23:13.268Z,13.14
2022-09-29T23:25:39.785Z,13.12
2022-09-29T23:28:06.316Z,13.12
2022-09-29T23:30:35.863Z,13.11
2022-09-29T23:33:02.683Z,13.09
2022-09-29T23:35:28.907Z,13.08
2022-09-29T23:38:13.946Z,13.01
2022-09-29T23:40:41.667Z,13.04
2022-09-29T23:43:08.112Z,13.07
2022-09-29T23:45:34.474Z,13.10
2022-09-29T23:48:01.231Z,12.97
2022-09-29T23:50:29.769Z,13.05
2022-09-29T23:52:55.997Z,13.08
2022-09-29T23:55:22.495Z,13.09
2022-09-29T23:57:48.730Z,13.07
